Time;durP1;ratioP1;P1;durP2;ratioP2;P2;SDS_P1;SDS_P2;PMS_P1;PMS_P2;Temp;Humidity;BMP_temperature;BMP_pressure;BME280_temperature;BME280_humidity;BME280_pressure;Samples;Min_cycle;Max_cycle;Signal;HPM_P1;HPM_P2
2022/03/23 00:01:03;;;;;;;6.03;5.03;;;;;-1.30;98376.00;;;;5059579;28;20850;-69
2022/03/23 00:03:53;;;;;;;8.53;5.53;;;;;-1.40;98374.00;;;;5071872;28;21029;-69
2022/03/23 00:06:43;;;;;;;5.03;4.53;;;;;-1.60;98373.00;;;;5070866;28;20444;-69
2022/03/23 00:09:32;;;;;;;7.80;6.37;;;;;-1.50;98366.00;;;;5056157;28;20435;-69
2022/03/23 00:12:33;;;;;;;4.50;4.07;;;;;-1.60;98356.00;;;;5051496;28;20432;-69
2022/03/23 00:15:22;;;;;;;8.73;5.93;;;;;-1.30;98368.00;;;;5059586;28;20428;-69
2022/03/23 00:18:11;;;;;;;5.83;4.77;;;;;-1.20;98350.00;;;;5053045;28;20427;-69
2022/03/23 00:21:01;;;;;;;7.23;6.03;;;;;-1.10;98370.00;;;;5051556;28;20460;-69
2022/03/23 00:23:50;;;;;;;7.60;5.83;;;;;-1.00;98363.00;;;;5050588;28;20447;-69
2022/03/23 00:26:39;;;;;;;8.90;5.33;;;;;-1.10;98371.00;;;;5062830;28;20424;-69
2022/03/23 00:29:29;;;;;;;8.20;4.93;;;;;-1.30;98353.00;;;;5051477;28;20427;-69
2022/03/23 00:32:18;;;;;;;5.67;4.77;;;;;-1.10;98367.00;;;;5050577;28;20434;-69
2022/03/23 00:35:07;;;;;;;8.23;5.20;;;;;-1.10;98363.00;;;;5060393;28;20450;-69
2022/03/23 00:37:58;;;;;;;8.27;5.60;;;;;-1.00;98361.00;;;;5071456;28;20426;-69
2022/03/23 00:40:47;;;;;;;7.77;5.50;;;;;-1.00;98362.00;;;;5050885;28;20497;-69
2022/03/23 00:43:37;;;;;;;5.57;4.60;;;;;-1.20;98355.00;;;;5050652;28;20459;-69
2022/03/23 00:46:26;;;;;;;6.73;4.03;;;;;-1.90;98353.00;;;;5060020;28;20438;-69
2022/03/23 00:49:15;;;;;;;6.17;5.07;;;;;-1.60;98350.00;;;;5052319;28;20432;-69
2022/03/23 00:52:06;;;;;;;7.03;4.87;;;;;-1.20;98359.00;;;;5050228;28;20430;-69
2022/03/23 00:54:56;;;;;;;5.77;4.73;;;;;-1.00;98351.00;;;;5050701;28;20439;-69
2022/03/23 00:57:45;;;;;;;8.80;5.70;;;;;-0.90;98362.00;;;;5059578;28;20960;-69
2022/03/23 01:00:34;;;;;;;7.17;5.60;;;;;-0.90;98345.00;;;;5070416;28;20434;-69
2022/03/23 01:03:23;;;;;;;13.33;5.70;;;;;-1.20;98350.00;;;;5070586;28;20476;-69
2022/03/23 01:06:13;;;;;;;9.47;6.57;;;;;-1.10;98347.00;;;;5071612;28;20450;-69
2022/03/23 01:09:02;;;;;;;6.73;4.90;;;;;-1.00;98342.00;;;;5071067;28;20426;-69
2022/03/23 01:11:53;;;;;;;8.50;5.97;;;;;-1.30;98342.00;;;;5069402;28;20421;-69
2022/03/23 01:14:42;;;;;;;12.70;6.47;;;;;-1.80;98335.00;;;;5063447;28;20470;-68
2022/03/23 01:17:32;;;;;;;8.33;4.90;;;;;-1.90;98338.00;;;;5050686;28;20442;-69
2022/03/23 01:20:21;;;;;;;9.07;5.50;;;;;-2.00;98329.00;;;;5057915;28;20445;-69
2022/03/23 01:23:10;;;;;;;6.97;6.07;;;;;-1.90;98335.00;;;;5070595;28;20430;-69
2022/03/23 01:25:59;;;;;;;4.60;4.03;;;;;-1.80;98328.00;;;;5071236;28;20453;-69
2022/03/23 01:28:50;;;;;;;8.17;5.67;;;;;-1.40;98327.00;;;;5050126;28;20426;-69
2022/03/23 01:31:39;;;;;;;6.03;5.10;;;;;-1.30;98327.00;;;;5057128;28;20767;-69
2022/03/23 01:34:28;;;;;;;9.50;5.63;;;;;-1.10;98327.00;;;;5070522;28;20852;-69
2022/03/23 01:37:17;;;;;;;8.60;5.00;;;;;-1.50;98317.00;;;;5070162;28;20860;-69
2022/03/23 01:40:08;;;;;;;8.60;4.73;;;;;-2.20;98315.00;;;;5059496;28;20431;-69
2022/03/23 01:42:57;;;;;;;8.13;4.43;;;;;-2.20;98316.00;;;;5049168;28;20479;-69
2022/03/23 01:45:48;;;;;;;7.27;4.70;;;;;-2.70;98304.00;;;;5057689;28;20414;-68
2022/03/23 01:48:37;;;;;;;5.67;3.47;;;;;-2.60;98309.00;;;;5053004;28;20427;-69
2022/03/23 01:51:26;;;;;;;8.67;4.00;;;;;-2.20;98304.00;;;;5049542;28;20431;-69
2022/03/23 01:54:15;;;;;;;6.80;4.67;;;;;-1.90;98307.00;;;;5048578;28;20451;-69
2022/03/23 01:57:05;;;;;;;6.80;5.90;;;;;-2.10;98296.00;;;;5048710;28;20454;-69
2022/03/23 01:59:54;;;;;;;4.70;3.47;;;;;-2.20;98302.00;;;;5048757;28;20450;-69
2022/03/23 02:02:44;;;;;;;5.27;2.10;;;;;-2.20;98295.00;;;;5056169;28;20462;-69
2022/03/23 02:05:33;;;;;;;6.40;5.50;;;;;-2.40;98288.00;;;;5069230;28;20423;-65
2022/03/23 02:08:23;;;;;;;7.77;4.53;;;;;-2.30;98296.00;;;;5069768;28;20443;-69
2022/03/23 02:11:13;;;;;;;5.90;4.70;;;;;-2.40;98291.00;;;;5068857;28;20423;-69
2022/03/23 02:14:02;;;;;;;10.87;5.20;;;;;-2.20;98288.00;;;;5065854;28;20450;-68
2022/03/23 02:16:52;;;;;;;2.87;2.47;;;;;-2.80;98279.00;;;;5054797;28;20438;-69
2022/03/23 02:19:42;;;;;;;9.00;5.83;;;;;-2.30;98269.00;;;;5069509;28;20809;-69
2022/03/23 02:22:33;;;;;;;6.53;4.97;;;;;-2.10;98283.00;;;;5068475;28;20477;-69
2022/03/23 02:25:25;;;;;;;6.83;3.73;;;;;-2.30;98264.00;;;;5069106;28;20933;-70
2022/03/23 02:28:15;;;;;;;6.57;4.50;;;;;-2.20;98269.00;;;;5050051;28;20424;-69
2022/03/23 02:31:07;;;;;;;8.20;4.87;;;;;-2.00;98262.00;;;;5048825;28;20436;-69
2022/03/23 02:33:57;;;;;;;8.23;5.27;;;;;-1.90;98283.00;;;;5049687;28;20469;-69
2022/03/23 02:36:46;;;;;;;5.40;4.93;;;;;-1.90;98274.00;;;;5059225;28;20434;-69
2022/03/23 02:39:37;;;;;;;5.17;4.07;;;;;-2.80;98262.00;;;;5062694;28;20438;-69
2022/03/23 02:42:26;;;;;;;8.67;5.07;;;;;-2.70;98258.00;;;;5048543;28;20474;-69
2022/03/23 02:45:15;;;;;;;6.70;5.00;;;;;-2.80;98255.00;;;;5059592;28;20454;-69
2022/03/23 02:48:06;;;;;;;10.43;4.17;;;;;-2.80;98256.00;;;;5058806;28;20419;-68
2022/03/23 02:50:55;;;;;;;9.60;3.63;;;;;-2.50;98258.00;;;;5048000;28;20436;-69
2022/03/23 03:03:31;;;;;;;3.50;3.17;;;;;-3.00;98244.00;;;;5032377;28;20479;-70
2022/03/23 03:06:20;;;;;;;4.60;3.33;;;;;-3.00;98242.00;;;;5048192;28;20436;-69
2022/03/23 03:09:09;;;;;;;7.43;5.10;;;;;-2.80;98254.00;;;;5057130;28;20418;-70
2022/03/23 03:12:01;;;;;;;2.23;1.80;;;;;-2.80;98243.00;;;;5070849;28;20442;-70
2022/03/23 03:14:50;;;;;;;4.07;3.77;;;;;-2.90;98240.00;;;;5063034;28;20455;-69
2022/03/23 03:17:39;;;;;;;5.00;4.20;;;;;-2.70;98242.00;;;;5064747;28;20449;-68
2022/03/23 03:20:29;;;;;;;7.23;4.37;;;;;-2.50;98255.00;;;;5064853;28;20437;-70
2022/03/23 03:23:18;;;;;;;6.87;5.27;;;;;-2.30;98247.00;;;;5064200;28;20559;-71
2022/03/23 03:26:07;;;;;;;6.03;4.67;;;;;-2.30;98232.00;;;;5061255;28;20439;-70
2022/03/23 03:28:57;;;;;;;6.77;5.00;;;;;-2.30;98239.00;;;;5052303;28;20445;-69
2022/03/23 03:31:46;;;;;;;7.63;4.77;;;;;-2.70;98230.00;;;;5051788;28;20431;-68
2022/03/23 03:34:36;;;;;;;4.73;3.37;;;;;-3.00;98235.00;;;;5060511;28;20449;-70
2022/03/23 03:37:25;;;;;;;1.80;1.70;;;;;-3.30;98216.00;;;;5072260;28;20431;-70
2022/03/23 03:40:14;;;;;;;1.97;1.77;;;;;-3.20;98224.00;;;;5057775;28;20443;-70
2022/03/23 03:43:03;;;;;;;7.20;4.93;;;;;-3.10;98224.00;;;;5052323;28;20478;-70
2022/03/23 03:45:54;;;;;;;6.87;5.07;;;;;-3.30;98219.00;;;;5062084;28;20454;-70
2022/03/23 03:48:43;;;;;;;2.10;1.90;;;;;-3.10;98231.00;;;;5055163;28;20439;-70
2022/03/23 03:51:34;;;;;;;3.07;2.87;;;;;-3.10;98225.00;;;;5051520;28;20434;-70
2022/03/23 03:54:23;;;;;;;7.27;5.13;;;;;-2.70;98218.00;;;;5051820;28;20455;-69
2022/03/23 03:57:12;;;;;;;2.50;2.40;;;;;-2.70;98229.00;;;;5060953;28;20431;-70
2022/03/23 04:00:01;;;;;;;2.73;2.53;;;;;-2.70;98215.00;;;;5061286;28;20427;-70
2022/03/23 04:02:52;;;;;;;7.87;5.10;;;;;-2.60;98229.00;;;;5052204;28;20985;-70
2022/03/23 04:05:41;;;;;;;4.27;3.47;;;;;-2.50;98224.00;;;;5061870;28;20426;-69
2022/03/23 04:08:30;;;;;;;9.20;4.00;;;;;-2.80;98219.00;;;;5072031;28;20434;-68
2022/03/23 04:11:19;;;;;;;4.77;4.33;;;;;-2.70;98214.00;;;;5070948;28;20479;-70
2022/03/23 04:14:09;;;;;;;4.33;3.73;;;;;-2.60;98217.00;;;;5066934;28;20509;-71
2022/03/23 04:16:58;;;;;;;2.83;2.73;;;;;-3.10;98212.00;;;;5065820;28;20416;-70
2022/03/23 04:19:48;;;;;;;4.67;3.73;;;;;-3.00;98218.00;;;;5060178;28;20433;-70
2022/03/23 04:22:38;;;;;;;3.23;1.67;;;;;-3.50;98211.00;;;;5050704;28;20463;-71
2022/03/23 04:25:28;;;;;;;4.30;3.90;;;;;-3.20;98206.00;;;;5061213;28;20977;-70
2022/03/23 04:28:17;;;;;;;3.43;3.03;;;;;-3.30;98206.00;;;;5052154;28;20426;-70
2022/03/23 04:31:06;;;;;;;5.27;4.20;;;;;-2.70;98202.00;;;;5050895;28;20440;-71
2022/03/23 04:33:56;;;;;;;2.63;2.40;;;;;-2.10;98225.00;;;;5051330;28;20447;-71
2022/03/23 04:36:46;;;;;;;1.67;1.57;;;;;-2.40;98219.00;;;;5060647;28;20422;-71
2022/03/23 04:39:35;;;;;;;4.93;4.37;;;;;-2.20;98227.00;;;;5064388;28;20435;-71
2022/03/23 04:42:24;;;;;;;6.43;4.37;;;;;-2.40;98216.00;;;;5050401;28;20435;-70
2022/03/23 04:45:14;;;;;;;4.10;3.47;;;;;-3.20;98216.00;;;;5062029;28;20466;-70
2022/03/23 04:48:03;;;;;;;5.23;3.23;;;;;-3.60;98220.00;;;;5060518;28;20929;-71
2022/03/23 04:50:52;;;;;;;3.60;3.30;;;;;-3.70;98211.00;;;;5050458;28;20447;-70
2022/03/23 04:53:43;;;;;;;5.10;4.60;;;;;-3.50;98221.00;;;;5050682;28;20452;-71
2022/03/23 04:56:32;;;;;;;3.47;2.73;;;;;-3.30;98211.00;;;;5049983;28;20427;-70
2022/03/23 04:59:21;;;;;;;9.00;5.20;;;;;-3.30;98226.00;;;;5059361;28;20929;-71
2022/03/23 05:02:10;;;;;;;2.23;2.13;;;;;-3.30;98216.00;;;;5070188;28;20430;-70
2022/03/23 05:04:59;;;;;;;2.23;2.13;;;;;-3.30;98216.00;;;;5070975;28;20452;-70
2022/03/23 05:07:48;;;;;;;4.30;2.90;;;;;-2.80;98227.00;;;;5071091;28;20468;-70
2022/03/23 05:10:39;;;;;;;4.63;3.57;;;;;-2.80;98222.00;;;;5066844;28;20434;-70
2022/03/23 05:13:28;;;;;;;4.70;3.23;;;;;-3.10;98224.00;;;;5064397;28;20451;-70
2022/03/23 05:16:18;;;;;;;5.30;4.47;;;;;-3.30;98228.00;;;;5061660;28;20889;-71
2022/03/23 05:19:07;;;;;;;5.47;4.47;;;;;-3.20;98230.00;;;;5063020;28;20438;-70
2022/03/23 05:21:57;;;;;;;2.50;2.30;;;;;-3.40;98225.00;;;;5063647;28;20450;-69
2022/03/23 05:24:46;;;;;;;1.77;1.67;;;;;-3.60;98223.00;;;;5055321;28;20477;-70
2022/03/23 05:27:38;;;;;;;2.93;2.77;;;;;-3.30;98227.00;;;;5056708;28;20439;-70
2022/03/23 05:30:27;;;;;;;4.33;3.97;;;;;-2.90;98219.00;;;;5059436;28;20443;-70
2022/03/23 05:33:16;;;;;;;6.20;3.27;;;;;-2.60;98223.00;;;;5072308;28;20808;-70
2022/03/23 05:36:05;;;;;;;3.63;3.33;;;;;-2.70;98227.00;;;;5053718;28;20438;-69
2022/03/23 05:38:55;;;;;;;1.67;1.57;;;;;-2.60;98230.00;;;;5055847;28;20442;-70
2022/03/23 05:41:44;;;;;;;8.00;4.40;;;;;-2.10;98243.00;;;;5064872;28;20936;-70
2022/03/23 05:44:35;;;;;;;7.93;5.17;;;;;-1.80;98229.00;;;;5050452;28;20521;-71
2022/03/23 05:47:24;;;;;;;2.97;2.47;;;;;-1.60;98237.00;;;;5060571;28;20438;-71
2022/03/23 05:50:13;;;;;;;3.93;3.63;;;;;-1.60;98223.00;;;;5060916;28;21169;-70
2022/03/23 05:53:03;;;;;;;4.97;4.17;;;;;-1.40;98234.00;;;;5076855;28;20640;-70
2022/03/23 05:55:52;;;;;;;2.90;2.70;;;;;-1.10;98223.00;;;;5066585;28;20439;-70
2022/03/23 05:58:41;;;;;;;2.30;2.10;;;;;-1.00;98237.00;;;;5067608;28;20422;-70
2022/03/23 06:01:32;;;;;;;4.93;3.80;;;;;-1.30;98231.00;;;;5060749;28;20811;-70
2022/03/23 06:04:21;;;;;;;5.57;4.40;;;;;-1.10;98223.00;;;;5065386;28;20471;-70
2022/03/23 06:07:10;;;;;;;9.30;4.17;;;;;-1.10;98223.00;;;;5072336;28;20434;-69
2022/03/23 06:10:00;;;;;;;4.30;3.63;;;;;-0.80;98226.00;;;;5074272;28;20952;-70
2022/03/23 06:12:49;;;;;;;8.17;5.33;;;;;-0.60;98222.00;;;;5063427;28;20431;-70
2022/03/23 06:15:38;;;;;;;6.30;3.57;;;;;-0.60;98233.00;;;;5068496;28;20437;-70
2022/03/23 06:18:29;;;;;;;6.77;4.90;;;;;-0.20;98228.00;;;;5068283;28;20926;-70
2022/03/23 06:21:18;;;;;;;10.23;5.07;;;;;-0.30;98230.00;;;;5069356;28;20786;-70
2022/03/23 06:24:07;;;;;;;5.37;2.77;;;;;-0.50;98245.00;;;;5070797;28;20462;-71
2022/03/23 06:26:56;;;;;;;10.87;4.23;;;;;-0.10;98243.00;;;;5063513;28;20434;-70
2022/03/23 06:29:45;;;;;;;4.73;4.03;;;;;0.10;98234.00;;;;5064892;28;20440;-71
2022/03/23 06:32:34;;;;;;;7.10;3.93;;;;;0.20;98236.00;;;;5057782;28;20423;-71
2022/03/23 06:35:26;;;;;;;6.40;4.90;;;;;0.70;98234.00;;;;5058050;28;20460;-70
2022/03/23 06:38:16;;;;;;;8.40;4.70;;;;;0.90;98245.00;;;;5059206;28;20968;-70
2022/03/23 06:41:05;;;;;;;7.67;4.77;;;;;1.00;98249.00;;;;5072198;28;20421;-71
2022/03/23 06:43:54;;;;;;;10.57;5.77;;;;;1.00;98242.00;;;;5071069;28;20485;-71
2022/03/23 06:46:44;;;;;;;8.93;4.60;;;;;1.30;98230.00;;;;5065918;28;20466;-70
2022/03/23 06:49:33;;;;;;;6.90;5.23;;;;;1.50;98240.00;;;;5063010;28;20435;-71
2022/03/23 06:52:24;;;;;;;8.13;4.83;;;;;1.90;98245.00;;;;5058408;28;20820;-70
2022/03/23 06:55:13;;;;;;;7.40;5.03;;;;;2.20;98244.00;;;;5060363;28;20964;-71
2022/03/23 06:58:02;;;;;;;12.13;7.17;;;;;2.30;98239.00;;;;5055113;28;20430;-71
2022/03/23 07:00:51;;;;;;;31.97;19.27;;;;;2.70;98238.00;;;;5062697;28;20460;-71
2022/03/23 07:03:40;;;;;;;22.47;11.17;;;;;3.30;98250.00;;;;5059189;28;20450;-72
2022/03/23 07:06:29;;;;;;;8.37;5.53;;;;;3.90;98247.00;;;;5064705;28;20492;-71
2022/03/23 07:09:32;;;;;;;8.63;4.67;;;;;4.10;98243.00;;;;5074186;28;20433;-71
2022/03/23 07:12:21;;;;;;;13.00;7.07;;;;;4.60;98238.00;;;;5066685;28;21295;-71
2022/03/23 07:15:10;;;;;;;9.27;5.40;;;;;4.90;98234.00;;;;5062928;28;20447;-71
2022/03/23 07:17:59;;;;;;;8.60;5.33;;;;;5.20;98249.00;;;;5070359;28;20450;-71
2022/03/23 07:20:48;;;;;;;6.87;5.37;;;;;5.40;98244.00;;;;5065085;28;20442;-72
2022/03/23 07:23:38;;;;;;;7.97;5.23;;;;;5.40;98244.00;;;;5071231;28;20455;-71
2022/03/23 07:26:29;;;;;;;7.93;5.07;;;;;5.80;98247.00;;;;5068038;28;20434;-70
2022/03/23 07:29:18;;;;;;;12.70;5.83;;;;;6.20;98251.00;;;;5050953;28;20435;-72
2022/03/23 07:32:08;;;;;;;13.13;4.53;;;;;6.20;98251.00;;;;5064729;28;20953;-72
2022/03/23 07:34:57;;;;;;;9.67;5.77;;;;;6.50;98243.00;;;;5062989;28;20222;-71
2022/03/23 07:37:46;;;;;;;12.27;7.27;;;;;6.70;98243.00;;;;5060587;28;20208;-71
2022/03/23 07:40:36;;;;;;;14.27;6.10;;;;;7.00;98244.00;;;;5049638;28;20205;-71
2022/03/23 07:43:26;;;;;;;9.90;5.13;;;;;7.30;98248.00;;;;5064223;28;20250;-71
2022/03/23 07:46:15;;;;;;;9.57;4.47;;;;;6.80;98250.00;;;;5067735;28;20200;-72
2022/03/23 07:49:05;;;;;;;8.47;5.53;;;;;7.40;98251.00;;;;5049702;28;20213;-72
2022/03/23 07:51:54;;;;;;;6.77;5.17;;;;;7.80;98248.00;;;;5066303;28;20605;-72
2022/03/23 07:54:43;;;;;;;7.83;4.33;;;;;7.90;98234.00;;;;5063329;28;20240;-72
2022/03/23 07:57:32;;;;;;;7.27;4.77;;;;;8.10;98244.00;;;;5049785;28;20208;-71
2022/03/23 08:00:22;;;;;;;9.00;6.63;;;;;8.20;98246.00;;;;5065031;28;20202;-72
2022/03/23 08:03:11;;;;;;;12.37;5.10;;;;;8.30;98237.00;;;;5062686;28;20207;-73
2022/03/23 08:06:01;;;;;;;8.60;4.67;;;;;8.60;98237.00;;;;5063490;28;20584;-72
2022/03/23 08:08:50;;;;;;;11.13;5.60;;;;;8.80;98250.00;;;;5065039;28;20200;-71
2022/03/23 08:11:39;;;;;;;9.00;4.67;;;;;8.40;98231.00;;;;5061981;28;20200;-71
2022/03/23 08:14:28;;;;;;;5.10;4.13;;;;;8.80;98238.00;;;;5066560;28;20219;-71
2022/03/23 08:17:18;;;;;;;6.97;4.23;;;;;8.80;98231.00;;;;5060703;28;20202;-72
2022/03/23 08:23:16;;;;;;;7.53;4.37;;;;;9.40;98236.00;;;;5066904;28;20219;-72
2022/03/23 08:26:09;;;;;;;7.80;5.27;;;;;9.50;98234.00;;;;5072337;28;20219;-72
2022/03/23 08:28:58;;;;;;;9.77;3.90;;;;;9.80;98232.00;;;;5079878;28;20207;-72
2022/03/23 08:31:47;;;;;;;6.73;4.50;;;;;10.10;98229.00;;;;5078976;28;20203;-72
2022/03/23 08:34:38;;;;;;;11.60;4.17;;;;;10.40;98223.00;;;;5076508;28;20224;-72
2022/03/23 08:37:28;;;;;;;12.20;5.87;;;;;10.80;98231.00;;;;5073298;28;20219;-72
2022/03/23 08:40:17;;;;;;;9.07;4.67;;;;;10.90;98228.00;;;;5077914;28;20199;-72
2022/03/23 08:43:06;;;;;;;6.43;5.00;;;;;11.10;98226.00;;;;5070190;28;20204;-72
2022/03/23 08:45:56;;;;;;;11.07;4.27;;;;;11.50;98230.00;;;;5062277;28;20346;-72
2022/03/23 08:48:45;;;;;;;8.20;5.40;;;;;11.40;98221.00;;;;5054329;28;20217;-72
2022/03/23 08:51:35;;;;;;;6.50;4.07;;;;;12.00;98227.00;;;;5049376;28;20691;-72
2022/03/23 08:54:25;;;;;;;6.90;3.90;;;;;12.40;98230.00;;;;5050983;28;20613;-71
2022/03/23 08:57:14;;;;;;;7.00;4.33;;;;;12.40;98224.00;;;;5076678;23;20238;-86
2022/03/23 09:00:03;;;;;;;7.40;4.67;;;;;12.50;98225.00;;;;5081484;28;20203;-85
2022/03/23 09:02:52;;;;;;;7.37;3.70;;;;;12.70;98221.00;;;;5078880;28;20230;-86
2022/03/23 09:05:41;;;;;;;6.60;3.90;;;;;12.90;98222.00;;;;5079509;28;20215;-85
2022/03/23 09:08:32;;;;;;;10.37;3.93;;;;;13.20;98221.00;;;;5059678;28;20712;-84
2022/03/23 09:11:24;;;;;;;7.10;3.80;;;;;13.40;98216.00;;;;5060769;28;20690;-85
2022/03/23 09:14:14;;;;;;;8.80;4.00;;;;;13.60;98216.00;;;;5058956;28;20192;-85
2022/03/23 09:17:03;;;;;;;6.43;4.50;;;;;13.90;98213.00;;;;5059546;28;20223;-85
2022/03/23 09:19:52;;;;;;;7.00;4.03;;;;;14.00;98213.00;;;;5056870;28;20203;-85
2022/03/23 09:22:41;;;;;;;7.37;5.23;;;;;14.20;98208.00;;;;5062332;28;20196;-85
2022/03/23 09:25:32;;;;;;;8.50;3.70;;;;;14.50;98215.00;;;;5055445;28;20251;-84
2022/03/23 09:28:22;;;;;;;5.47;4.03;;;;;14.60;98212.00;;;;5061618;28;20192;-85
2022/03/23 09:31:11;;;;;;;8.33;4.20;;;;;14.70;98200.00;;;;5059890;28;20240;-85
2022/03/23 09:34:02;;;;;;;4.90;3.77;;;;;14.90;98203.00;;;;5054780;28;20207;-84
2022/03/23 09:39:58;;;;;;;4.27;3.00;;;;;15.70;98195.00;;;;5047325;28;20425;-85
2022/03/23 09:42:49;;;;;;;13.63;4.77;;;;;15.90;98200.00;;;;5049484;28;20675;-86
2022/03/23 09:45:46;;;;;;;3.83;3.07;;;;;16.00;98197.00;;;;5050669;28;20224;-85
2022/03/23 09:48:36;;;;;;;7.50;3.53;;;;;16.30;98197.00;;;;5051268;28;20204;-85
2022/03/23 09:51:26;;;;;;;4.37;3.23;;;;;16.50;98189.00;;;;5040617;28;20204;-86
2022/03/23 09:54:15;;;;;;;3.70;2.97;;;;;16.90;98186.00;;;;5050198;28;20209;-85
2022/03/23 09:57:06;;;;;;;7.83;3.03;;;;;17.10;98186.00;;;;5049414;28;20249;-85
2022/03/23 09:59:56;;;;;;;6.37;3.47;;;;;17.50;98179.00;;;;5049815;28;20580;-85
2022/03/23 10:03:36;;;;;;;4.77;2.90;;;;;17.60;98170.00;;;;5068866;23;20267;-72
2022/03/23 10:06:56;;;;;;;3.83;3.07;;;;;18.00;98180.00;;;;5053775;28;20232;-72
2022/03/23 10:10:20;;;;;;;6.90;3.20;;;;;18.50;98171.00;;;;5043409;28;20215;-72
2022/03/23 10:14:01;;;;;;;3.07;2.77;;;;;18.80;98158.00;;;;5049953;28;20695;-72
2022/03/23 10:17:15;;;;;;;10.83;3.00;;;;;19.10;98163.00;;;;4966961;28;20247;-71
2022/03/23 10:20:04;;;;;;;3.03;2.70;;;;;18.80;98162.00;;;;4973595;28;20273;-71
2022/03/23 10:22:55;;;;;;;2.67;2.43;;;;;19.20;98157.00;;;;5048371;28;20216;-71
2022/03/23 10:25:44;;;;;;;4.73;2.60;;;;;19.90;98161.00;;;;5049864;28;20721;-71
2022/03/23 10:28:35;;;;;;;3.97;1.90;;;;;20.10;98156.00;;;;5049305;28;20459;-71
2022/03/23 10:31:25;;;;;;;3.47;2.40;;;;;20.20;98152.00;;;;5049510;28;20578;-71
2022/03/23 10:34:16;;;;;;;3.90;2.67;;;;;20.60;98152.00;;;;5049497;28;20683;-71
2022/03/23 10:37:05;;;;;;;2.20;2.00;;;;;20.00;98147.00;;;;5049528;28;20683;-71
2022/03/23 10:39:55;;;;;;;3.10;2.10;;;;;19.80;98143.00;;;;5045181;28;20203;-71
2022/03/23 10:42:46;;;;;;;3.93;2.33;;;;;19.40;98132.00;;;;5055888;28;20201;-69
2022/03/23 10:45:37;;;;;;;2.57;2.03;;;;;18.60;98119.00;;;;5057735;28;20227;-72
2022/03/23 10:48:26;;;;;;;3.40;2.93;;;;;20.20;98122.00;;;;5042834;28;20216;-71
2022/03/23 10:51:27;;;;;;;3.20;2.53;;;;;20.70;98116.00;;;;5036053;28;20205;-71
2022/03/23 10:54:17;;;;;;;3.53;2.77;;;;;19.40;98115.00;;;;5049749;28;20208;-72
2022/03/23 10:57:06;;;;;;;4.37;2.73;;;;;20.80;98124.00;;;;5054219;28;20228;-72
2022/03/23 10:59:55;;;;;;;6.47;4.03;;;;;21.50;98118.00;;;;5055755;28;20192;-72
2022/03/23 11:02:48;;;;;;;2.90;2.43;;;20.00;33.30;21.80;98112.00;;;;5048419;28;20217;-72
2022/03/23 11:05:39;;;;;;;3.43;3.13;;;19.70;33.70;22.30;98110.00;;;;5053923;28;20572;-72
2022/03/23 11:08:31;;;;;;;9.73;2.83;;;20.60;33.60;21.20;98100.00;;;;5052337;28;20205;-72
2022/03/23 11:17:32;;;;;;;5.93;3.57;;;21.10;32.80;23.50;98080.00;;;;5053547;28;20220;-72
2022/03/23 11:20:21;;;;;;;3.47;3.17;;;21.50;33.40;24.30;98085.00;;;;5057647;28;20207;-73
2022/03/23 11:23:19;;;;;;;7.20;3.83;;;22.00;33.60;22.00;98066.00;;;;5055461;28;20197;-72
2022/03/23 11:26:11;;;;;;;5.40;3.87;;;22.30;31.00;22.10;98063.00;;;;5052618;28;20216;-72
2022/03/23 11:29:02;;;;;;;5.00;3.50;;;21.90;30.70;23.20;98064.00;;;;5053148;28;20199;-68
2022/03/23 11:31:53;;;;;;;3.53;3.20;;;21.90;31.00;24.40;98065.00;;;;5045158;28;20211;-69
2022/03/23 11:34:48;;;;;;;5.13;2.73;;;22.20;31.20;25.10;98069.00;;;;5059719;28;20203;-70
2022/03/23 11:37:38;;;;;;;;;;;22.70;31.90;24.40;98065.00;;;;5055523;28;20369;-72
2022/03/23 11:40:28;;;;;;;5.03;2.60;;;23.20;31.00;24.40;98056.00;;;;5059444;28;20473;-72
2022/03/23 11:43:22;;;;;;;6.27;2.80;;;23.50;29.40;25.60;98049.00;;;;5061329;28;20203;-72
2022/03/23 11:46:23;;;;;;;4.33;3.57;;;23.60;29.90;23.10;98040.00;;;;5061354;28;20225;-71
2022/03/23 11:49:22;;;;;;;4.50;2.80;;;23.50;28.70;24.60;98043.00;;;;5058430;28;20201;-70
2022/03/23 11:52:29;;;;;;;4.47;2.87;;;23.40;29.40;25.10;98043.00;;;;5062675;28;20904;-70
2022/03/23 11:55:40;;;;;;;3.07;2.77;;;23.60;29.70;23.80;98039.00;;;;5061800;28;20578;-70
2022/03/23 11:58:37;;;;;;;3.27;2.70;;;23.80;29.20;25.40;98034.00;;;;5059244;28;20582;-70
2022/03/23 12:01:32;;;;;;;4.63;2.80;;;23.80;29.10;26.00;98027.00;;;;5060555;28;20198;-69
2022/03/23 12:04:22;;;;;;;4.37;3.20;;;24.10;29.70;24.30;98025.00;;;;5060380;28;20199;-70
2022/03/23 12:07:12;;;;;;;3.90;3.13;;;24.30;29.60;24.30;98021.00;;;;5051638;28;20272;-70
2022/03/23 12:10:20;;;;;;;6.37;3.07;;;24.20;27.70;25.50;98026.00;;;;5057131;28;20198;-70
2022/03/23 12:13:18;;;;;;;3.47;3.13;;;24.10;29.20;24.40;98010.00;;;;5049833;28;20254;-70
2022/03/23 12:16:08;;;;;;;4.77;3.13;;;24.40;29.00;25.30;98006.00;;;;5056703;28;20230;-70
2022/03/23 12:19:00;;;;;;;4.50;3.40;;;24.30;28.50;27.20;97998.00;;;;5054416;28;20581;-70
2022/03/23 12:22:00;;;;;;;5.17;3.40;;;24.60;29.60;27.30;98002.00;;;;5055407;28;20068;-70
2022/03/23 12:24:58;;;;;;;5.23;3.60;;;25.20;29.50;24.80;97999.00;;;;5050971;28;20227;-71
2022/03/23 12:27:56;;;;;;;5.47;3.40;;;25.30;28.10;27.10;98004.00;;;;5053723;28;20392;-70
2022/03/23 12:31:04;;;;;;;5.73;3.73;;;25.40;28.40;25.60;98001.00;;;;5052625;28;20489;-70
2022/03/23 12:34:08;;;;;;;5.55;3.45;;;25.50;28.30;27.50;97999.00;;;;5051371;28;20498;-71
2022/03/23 12:37:07;;;;;;;6.88;3.38;;;25.60;28.70;28.10;97996.00;;;;5044137;28;20918;-71
2022/03/23 12:40:08;;;;;;;4.03;3.00;;;25.60;28.40;29.00;97999.00;;;;5059457;28;20201;-71
2022/03/23 12:42:57;;;;;;;5.13;3.40;;;26.10;29.10;27.90;97981.00;;;;5058364;28;20200;-69
2022/03/23 12:45:45;;;;;;;4.15;3.10;;;26.60;27.90;28.30;97985.00;;;;5057746;28;20691;-69
2022/03/23 12:58:07;;;;;;;4.63;2.47;;;26.30;27.70;27.20;97968.00;;;;5058610;28;20246;-69
2022/03/23 13:01:09;;;;;;;3.08;2.78;;;26.50;27.10;27.50;97978.00;;;;5058881;28;20207;-71
2022/03/23 13:04:01;;;;;;;4.35;3.10;;;26.60;26.80;27.90;97978.00;;;;5058880;28;20276;-69
2022/03/23 13:06:51;;;;;;;5.00;3.20;;;26.90;27.50;28.40;97973.00;;;;5057323;28;20228;-69
2022/03/23 13:09:40;;;;;;;5.70;3.13;;;27.20;27.10;29.70;97970.00;;;;5050366;28;20700;-69
2022/03/23 13:12:31;;;;;;;3.35;2.47;;;27.40;27.60;29.90;97965.00;;;;5042179;28;20199;-69
2022/03/23 13:15:22;;;;;;;5.32;3.40;;;27.60;28.30;30.00;97969.00;;;;5047681;28;20676;-69
2022/03/23 13:18:11;;;;;;;3.97;2.22;;;28.10;27.90;27.70;97972.00;;;;5058883;28;20204;-70
2022/03/23 13:21:00;;;;;;;3.47;2.88;;;27.70;26.70;27.70;97966.00;;;;5058175;28;20200;-69
2022/03/23 13:24:01;;;;;;;3.60;2.63;;;27.40;26.60;26.60;97957.00;;;;5058537;28;20204;-68
2022/03/23 13:26:52;;;;;;;8.63;4.13;;;27.00;26.40;28.40;97959.00;;;;5054579;28;20230;-68
2022/03/23 13:29:41;;;;;;;4.30;2.80;;;26.80;26.60;29.40;97963.00;;;;5058647;28;20206;-68
2022/03/23 13:32:33;;;;;;;3.80;2.80;;;27.20;27.50;25.80;97947.00;;;;5061693;28;20200;-69
2022/03/23 13:35:24;;;;;;;5.93;2.65;;;27.10;26.10;25.60;97947.00;;;;5057011;28;20223;-69
2022/03/23 13:38:13;;;;;;;9.13;3.08;;;26.80;26.10;23.50;97940.00;;;;5059268;28;20577;-70
2022/03/23 13:44:11;;;;;;;3.70;3.30;;;25.20;26.60;24.80;97930.00;;;;5057533;28;20204;-68
2022/03/23 13:47:01;;;;;;;3.03;2.70;;;24.70;26.50;27.40;97941.00;;;;5052076;28;20224;-70
2022/03/23 13:49:50;;;;;;;3.45;2.60;;;25.10;28.10;24.20;97920.00;;;;5056446;28;20209;-72
2022/03/23 13:52:41;;;;;;;5.43;2.80;;;25.10;26.40;24.60;97926.00;;;;5056359;28;20199;-70
2022/03/23 13:55:30;;;;;;;4.27;3.30;;;24.60;26.30;26.80;97927.00;;;;5058661;28;20201;-70
2022/03/23 13:58:26;;;;;;;3.00;2.70;;;24.90;27.60;24.00;97915.00;;;;5057492;28;20691;-70
2022/03/23 14:01:15;;;;;;;6.17;2.80;;;25.00;26.60;24.40;97909.00;;;;5058666;28;20210;-70
2022/03/23 14:04:05;;;;;;;4.00;2.63;;;24.80;26.50;24.10;97919.00;;;;5043311;28;20220;-70
2022/03/23 14:06:58;;;;;;;3.40;2.70;;;24.50;26.80;25.00;97910.00;;;;5046404;28;20301;-70
2022/03/23 14:09:48;;;;;;;3.87;3.20;;;24.70;27.20;25.50;97917.00;;;;5034523;28;20204;-69
2022/03/23 14:12:37;;;;;;;3.77;3.13;;;24.70;27.00;25.80;97910.00;;;;5038840;28;20218;-70
2022/03/23 14:15:52;;;;;;;2.50;2.13;;;24.90;26.90;27.10;97906.00;;;;5036032;28;20323;-71
2022/03/23 14:18:41;;;;;;;3.40;2.67;;;25.40;27.20;28.20;97909.00;;;;5039750;28;20210;-70
2022/03/23 14:21:31;;;;;;;3.72;3.28;;;26.00;27.20;28.80;97902.00;;;;5042370;28;20261;-70
2022/03/23 14:24:20;;;;;;;3.33;2.95;;;26.40;26.90;27.40;97905.00;;;;5041453;28;20228;-70
2022/03/23 14:27:24;;;;;;;3.67;2.72;;;26.90;27.00;26.80;97897.00;;;;5040985;28;20233;-70
2022/03/23 14:30:19;;;;;;;5.30;2.97;;;26.60;26.60;27.30;97897.00;;;;5039834;28;20716;-70